Time;durP1;ratioP1;P1;durP2;ratioP2;P2;SDS_P1;SDS_P2;PMS_P1;PMS_P2;Temp;Humidity;BMP_temperature;BMP_pressure;BME280_temperature;BME280_humidity;BME280_pressure;Samples;Min_cycle;Max_cycle;Signal;HPM_P1;HPM_P2
2022/12/17 13:06:12;;;;;;;47.70;20.23;;;;;;;-148.88;100.00;78697.16;5013376;28;20165;-72
2022/12/17 13:08:38;;;;;;;52.38;19.55;;;;;;;-148.88;100.00;78699.19;5013006;28;20033;-71
2022/12/17 13:11:26;;;;;;;40.00;19.52;;;;;;;-148.88;100.00;78711.38;5012834;28;20029;-72
2022/12/17 13:13:57;;;;;;;43.58;19.20;;;;;;;-148.88;100.00;78715.44;5017632;28;20454;-72
2022/12/17 13:16:34;;;;;;;39.78;20.10;;;;;;;-148.88;100.00;78727.63;5019481;28;20025;-72
2022/12/17 13:19:02;;;;;;;52.47;19.83;;;;;;;-148.88;100.00;78737.78;5019309;28;20076;-72
2022/12/17 13:21:30;;;;;;;43.60;19.70;;;;;;;-148.88;100.00;78735.75;5019426;28;20385;-75
2022/12/17 13:23:55;;;;;;;52.17;21.33;;;;;;;-148.88;100.00;78752.03;5017862;28;20061;-72
2022/12/17 13:26:40;;;;;;;37.95;18.35;;;;;;;-148.88;100.00;78719.50;5019238;28;20061;-71
2022/12/17 13:29:28;;;;;;;41.08;18.98;;;;;;;-148.88;100.00;78717.47;5019622;28;20109;-72
2022/12/17 13:31:59;;;;;;;40.40;18.00;;;;;;;-148.88;100.00;78703.25;5019225;28;20489;-71
2022/12/17 13:34:51;;;;;;;40.95;18.92;;;;;;;-148.88;100.00;78715.44;5019062;28;20113;-71
2022/12/17 13:37:22;;;;;;;45.00;19.77;;;;;;;-148.88;100.00;78707.31;5019561;28;20025;-71
2022/12/17 13:40:11;;;;;;;40.78;18.83;;;;;;;-148.88;100.00;78727.63;5019216;28;20030;-71
2022/12/17 13:42:37;;;;;;;43.55;18.38;;;;;;;-148.88;100.00;78715.44;4978665;28;20038;-71
2022/12/17 13:45:03;;;;;;;40.92;18.08;;;;;;;-148.88;100.00;78735.75;5019052;28;20025;-71
2022/12/17 13:47:37;;;;;;;42.88;18.20;;;;;;;-148.88;100.00;78768.28;5019015;28;20053;-72
2022/12/17 13:50:18;;;;;;;42.63;18.33;;;;;;;-148.88;100.00;78802.84;5019316;28;20022;-71
2022/12/17 13:52:43;;;;;;;44.20;18.23;;;;;;;-148.88;100.00;78813.00;5019139;28;20053;-71
2022/12/17 13:55:17;;;;;;;41.75;18.85;;;;;;;-148.88;100.00;78808.94;5018837;28;20113;-71
2022/12/17 13:57:46;;;;;;;44.50;19.70;;;;;;;-148.88;100.00;78817.06;5018972;28;20026;-71
2022/12/17 14:00:37;;;;;;;43.75;18.77;;;;;;;-148.88;100.00;78804.88;5018923;28;20030;-71
2022/12/17 14:03:10;;;;;;;41.17;18.58;;;;;;;-148.88;100.00;78813.00;5015207;28;20523;-70
2022/12/17 14:05:40;;;;;;;46.10;18.08;;;;;;;-148.88;100.00;78819.09;5018843;28;20033;-71
2022/12/17 14:08:06;;;;;;;42.15;17.35;;;;;;;-148.88;100.00;78817.06;5017458;28;20084;-71
2022/12/17 14:10:32;;;;;;;47.00;18.65;;;;;;;-148.88;100.00;78829.28;5018814;28;20030;-71
2022/12/17 14:13:06;;;;;;;38.55;17.20;;;;;;;-148.88;100.00;78837.41;5018727;28;20026;-71
2022/12/17 14:15:32;;;;;;;39.35;16.88;;;;;;;-148.88;100.00;78827.25;5019141;28;20022;-71
2022/12/17 14:17:58;;;;;;;47.15;18.73;;;;;;;-148.88;100.00;78839.44;5017531;28;20485;-71
2022/12/17 14:20:35;;;;;;;41.40;17.70;;;;;;;-148.88;100.00;78845.53;5017430;28;20133;-70
2022/12/17 14:23:05;;;;;;;42.53;16.98;;;;;;;-148.88;100.00;78845.53;5018955;28;20559;-71
2022/12/17 14:25:36;;;;;;;36.75;16.08;;;;;;;-148.88;100.00;78841.47;5015357;28;20122;-71
2022/12/17 14:28:22;;;;;;;39.33;17.38;;;;;;;-148.88;100.00;78843.50;5015539;28;20097;-71
2022/12/17 14:30:47;;;;;;;42.58;17.60;;;;;;;-148.88;100.00;78847.56;5013655;28;20092;-71
2022/12/17 14:33:31;;;;;;;44.17;18.35;;;;;;;-148.88;100.00;78861.78;5015699;28;20025;-71
2022/12/17 14:35:58;;;;;;;43.00;17.63;;;;;;;-148.88;100.00;78871.97;5015524;28;20385;-71
2022/12/17 14:38:25;;;;;;;47.05;18.50;;;;;;;-148.88;100.00;78871.97;5015822;28;20101;-72
2022/12/17 14:40:51;;;;;;;49.03;18.10;;;;;;;-148.88;100.00;78874.00;5015466;28;20112;-74
2022/12/17 14:43:24;;;;;;;41.72;17.70;;;;;;;-148.88;100.00;78869.94;5015225;28;20061;-72
2022/12/17 14:46:37;;;;;;;;;;;;;;;-148.88;100.00;78880.09;5015821;28;20026;-72
2022/12/17 14:51:36;;;;;;;40.38;18.38;;;;;;;-148.88;100.00;78890.25;5015600;28;20037;-71
2022/12/17 14:54:21;;;;;;;43.67;18.00;;;;;;;-148.88;100.00;78888.22;5015222;28;20435;-72
2022/12/17 14:56:48;;;;;;;39.80;15.35;;;;;;;-148.88;100.00;78902.44;5014098;28;20393;-72
2022/12/17 14:59:32;;;;;;;42.45;16.63;;;;;;;-148.88;100.00;78914.66;5014183;28;20033;-71
2022/12/17 15:02:25;;;;;;;35.90;16.88;;;;;;;-148.88;100.00;78910.59;5015005;28;20022;-71
2022/12/17 15:04:54;;;;;;;42.17;17.50;;;;;;;-148.88;100.00;78924.81;5014714;28;20021;-71
2022/12/17 15:07:30;;;;;;;56.30;20.20;;;;;;;-148.88;100.00;78943.09;5014785;28;20037;-71
2022/12/17 15:09:56;;;;;;;44.67;19.17;;;;;;;-148.88;100.00;78957.34;5014740;28;20048;-71
2022/12/17 15:12:23;;;;;;;52.42;22.58;;;;;;;-148.88;100.00;78975.63;5013515;28;20504;-71
2022/12/17 15:14:49;;;;;;;50.92;23.05;;;;;;;-148.88;100.00;78977.66;5014966;28;20038;-72
2022/12/17 15:17:15;;;;;;;46.60;20.42;;;;;;;-148.88;100.00;78971.56;5013328;28;20109;-71
2022/12/17 15:19:40;;;;;;;54.65;22.27;;;;;;;-148.88;100.00;78959.38;5013372;28;20435;-71
2022/12/17 15:22:13;;;;;;;62.05;27.75;;;;;;;-148.88;100.00;78955.31;5013207;28;20026;-73
2022/12/17 15:24:38;;;;;;;57.55;25.48;;;;;;;-148.88;100.00;78955.31;5014477;28;20370;-72
2022/12/17 15:27:03;;;;;;;43.00;20.55;;;;;;;-148.88;100.00;78959.38;5014534;28;20040;-71
2022/12/17 15:29:30;;;;;;;56.70;23.02;;;;;;;-148.88;100.00;78963.44;5014430;28;20050;-71
2022/12/17 15:31:58;;;;;;;48.83;22.75;;;;;;;-148.88;100.00;78963.44;5014374;28;20029;-70
2022/12/17 15:34:23;;;;;;;56.03;23.73;;;;;;;-148.88;100.00;78989.88;5014317;28;20091;-70
2022/12/17 15:36:48;;;;;;;56.65;25.20;;;;;;;-148.88;100.00;79004.09;5013845;28;20014;-71
2022/12/17 15:39:14;;;;;;;48.50;22.17;;;;;;;-148.88;100.00;79006.13;5014457;28;20485;-70
2022/12/17 15:44:23;;;;;;;49.08;20.42;;;;;;;-148.88;100.00;79032.56;5014058;28;20036;-70
2022/12/17 15:46:48;;;;;;;42.35;18.08;;;;;;;-148.88;100.00;79028.47;5014180;28;20428;-71
2022/12/17 15:49:13;;;;;;;44.55;19.20;;;;;;;-148.88;100.00;79036.63;5013911;28;20026;-71
2022/12/17 15:51:39;;;;;;;52.85;20.35;;;;;;;-148.88;100.00;79036.63;5013770;28;20052;-71
2022/12/17 15:54:04;;;;;;;48.13;19.70;;;;;;;-148.88;100.00;79046.78;5013795;28;20018;-70
2022/12/17 15:56:30;;;;;;;43.50;19.63;;;;;;;-148.88;100.00;79050.84;5013851;28;20022;-71
2022/12/17 15:58:56;;;;;;;44.15;19.60;;;;;;;-148.88;100.00;79044.75;5012529;28;20036;-71
2022/12/17 16:01:22;;;;;;;49.92;21.45;;;;;;;-148.88;100.00;79048.81;5013903;28;20041;-71
2022/12/17 16:03:47;;;;;;;44.42;20.42;;;;;;;-148.88;100.00;79056.94;5013770;28;20026;-71
2022/12/17 16:06:12;;;;;;;50.65;21.85;;;;;;;-148.88;100.00;79069.16;5013597;28;20022;-71
2022/12/17 16:08:38;;;;;;;42.22;20.30;;;;;;;-148.88;100.00;79077.28;5013492;28;20080;-71
2022/12/17 16:11:12;;;;;;;53.90;20.83;;;;;;;-148.88;100.00;79077.28;5013499;28;20026;-70
2022/12/17 16:13:38;;;;;;;39.42;18.45;;;;;;;-148.88;100.00;79081.34;5013739;28;20504;-70
2022/12/17 16:16:05;;;;;;;51.90;21.23;;;;;;;-148.88;100.00;79081.34;5013563;28;20091;-72
2022/12/17 16:18:30;;;;;;;52.17;19.48;;;;;;;-148.88;100.00;79097.59;5013444;28;20493;-72
2022/12/17 16:21:03;;;;;;;49.25;20.38;;;;;;;-148.88;100.00;79109.81;5013867;28;20056;-72
2022/12/17 16:23:28;;;;;;;49.92;19.90;;;;;;;-148.88;100.00;79101.66;5013800;28;20443;-71
2022/12/17 16:25:56;;;;;;;44.75;19.58;;;;;;;-148.88;100.00;79107.78;5012177;28;20017;-71
2022/12/17 16:28:21;;;;;;;54.92;21.15;;;;;;;-148.88;100.00;79097.59;5013266;28;20061;-72
2022/12/17 16:31:00;;;;;;;50.15;21.38;;;;;;;-148.88;100.00;79095.56;5013192;28;20102;-73
2022/12/17 16:33:26;;;;;;;47.30;20.23;;;;;;;-148.88;100.00;79089.47;5013136;28;20025;-72
2022/12/17 16:35:52;;;;;;;43.80;19.05;;;;;;;-148.88;100.00;79089.47;5013241;28;20500;-72
2022/12/17 16:38:18;;;;;;;49.47;20.88;;;;;;;-148.88;100.00;79095.56;5013188;28;20048;-71
2022/12/17 16:40:43;;;;;;;45.08;20.67;;;;;;;-148.88;100.00;79093.53;5013178;28;20104;-73
2022/12/17 16:43:09;;;;;;;51.63;20.48;;;;;;;-148.88;100.00;79089.47;5012097;28;20038;-74
2022/12/17 16:45:34;;;;;;;49.78;19.50;;;;;;;-148.88;100.00;79095.56;5011929;28;20511;-72
2022/12/17 16:48:02;;;;;;;43.50;18.85;;;;;;;-148.88;100.00;79085.41;5012322;28;20033;-72
2022/12/17 16:50:29;;;;;;;48.42;20.58;;;;;;;-148.88;100.00;79081.34;5011919;28;20021;-74
2022/12/17 16:52:55;;;;;;;50.45;21.50;;;;;;;-148.88;100.00;79077.28;5013429;28;20140;-73
2022/12/17 16:55:21;;;;;;;52.10;19.35;;;;;;;-148.88;100.00;79077.28;5011531;28;20108;-72
2022/12/17 16:57:46;;;;;;;62.75;22.77;;;;;;;-148.88;100.00;79073.22;5012726;28;20022;-72
2022/12/17 17:00:12;;;;;;;55.42;22.15;;;;;;;-148.88;100.00;79077.28;5012769;28;20033;-73
2022/12/17 17:02:37;;;;;;;50.15;21.73;;;;;;;-148.88;100.00;79081.34;5012871;28;20109;-73
2022/12/17 17:05:03;;;;;;;49.97;21.65;;;;;;;-148.88;100.00;79069.16;5011373;28;20049;-74
2022/12/17 17:07:28;;;;;;;51.90;23.13;;;;;;;-148.88;100.00;79054.91;5012683;28;20052;-74
2022/12/17 17:09:54;;;;;;;56.70;23.20;;;;;;;-148.88;100.00;79048.81;5012785;28;20037;-73
2022/12/17 17:12:19;;;;;;;49.33;22.80;;;;;;;-148.88;100.00;79040.69;5011456;28;20397;-73
2022/12/17 17:14:44;;;;;;;52.67;23.65;;;;;;;-148.88;100.00;79040.69;5012657;28;20038;-72
2022/12/17 17:17:09;;;;;;;50.63;23.17;;;;;;;-148.88;100.00;79046.78;5012797;28;20021;-72
2022/12/17 17:19:35;;;;;;;54.55;23.92;;;;;;;-148.88;100.00;79058.97;5012777;28;20420;-71
2022/12/17 17:22:00;;;;;;;51.45;24.17;;;;;;;-148.88;100.00;79065.06;5013189;28;20405;-71
2022/12/17 17:24:25;;;;;;;46.20;22.33;;;;;;;-148.88;100.00;79073.22;5012775;28;20072;-71
2022/12/17 17:26:52;;;;;;;54.08;22.55;;;;;;;-148.88;100.00;79083.38;5012651;28;20034;-73
2022/12/17 17:29:17;;;;;;;45.92;20.95;;;;;;;-148.88;100.00;79077.28;5012761;28;20021;-72
2022/12/17 17:31:43;;;;;;;50.15;22.63;;;;;;;-148.88;100.00;79073.22;5011518;28;20032;-71
2022/12/17 17:34:10;;;;;;;43.70;22.50;;;;;;;-148.88;100.00;79071.19;5012569;28;20026;-71
2022/12/17 17:36:35;;;;;;;46.65;21.88;;;;;;;-148.88;100.00;79065.06;5011324;28;20021;-71
2022/12/17 17:39:01;;;;;;;46.72;21.27;;;;;;;-148.88;100.00;79075.25;5012614;28;20034;-71
2022/12/17 17:41:28;;;;;;;55.80;22.40;;;;;;;-148.88;100.00;79089.47;5012526;28;20075;-71
2022/12/17 17:43:56;;;;;;;49.45;22.50;;;;;;;-148.88;100.00;79089.47;5021497;22;20042;-81
2022/12/17 17:46:21;;;;;;;46.42;23.30;;;;;;;-148.88;100.00;79091.50;5011693;28;20599;-81
2022/12/17 17:48:48;;;;;;;49.05;22.15;;;;;;;-148.88;100.00;79101.66;5011703;28;20033;-82
2022/12/17 17:51:22;;;;;;;50.35;24.58;;;;;;;-148.88;100.00;79117.94;5013206;28;20397;-82
2022/12/17 17:53:49;;;;;;;49.67;23.23;;;;;;;-148.88;100.00;79130.13;5013113;28;20030;-82
2022/12/17 17:56:36;;;;;;;57.85;24.75;;;;;;;-148.88;100.00;79146.41;5037664;22;20064;-82
2022/12/17 17:59:05;;;;;;;57.45;25.65;;;;;;;-148.88;100.00;79146.41;5019388;28;20026;-82
2022/12/17 18:01:36;;;;;;;58.10;27.95;;;;;;;-148.88;100.00;79158.59;5020690;28;20033;-82
2022/12/17 18:04:05;;;;;;;55.78;26.73;;;;;;;-148.88;100.00;79168.75;5018254;28;20022;-81
2022/12/17 18:06:31;;;;;;;67.00;25.63;;;;;;;-148.88;100.00;79174.84;5017301;28;20025;-82
2022/12/17 18:08:58;;;;;;;67.63;29.52;;;;;;;-148.88;100.00;79191.13;5017448;28;20022;-81
2022/12/17 18:11:26;;;;;;;50.80;24.40;;;;;;;-148.88;100.00;79191.13;5019246;28;20026;-81
2022/12/17 18:13:54;;;;;;;47.42;21.30;;;;;;;-148.88;100.00;79191.13;5020160;28;20439;-82
2022/12/17 18:16:22;;;;;;;56.08;25.65;;;;;;;-148.88;100.00;79195.19;5019276;28;20468;-82
2022/12/17 18:18:48;;;;;;;64.13;25.67;;;;;;;-148.88;100.00;79195.19;5020356;28;20057;-82
2022/12/17 18:21:16;;;;;;;51.85;25.67;;;;;;;-148.88;100.00;79195.19;5019376;28;20034;-81
2022/12/17 18:23:42;;;;;;;59.92;24.88;;;;;;;-148.88;100.00;79203.31;5020343;28;20085;-82
2022/12/17 18:26:15;;;;;;;55.35;25.10;;;;;;;-148.88;100.00;79207.38;5019707;28;20070;-82
2022/12/17 18:28:41;;;;;;;57.13;25.52;;;;;;;-148.88;100.00;79211.44;5016246;28;20443;-82
2022/12/17 18:31:11;;;;;;;59.10;24.60;;;;;;;-148.88;100.00;79215.50;5016140;28;20477;-82
2022/12/17 18:33:38;;;;;;;53.42;24.15;;;;;;;-148.88;100.00;79217.53;5016871;28;20041;-82
2022/12/17 18:36:11;;;;;;;47.63;21.83;;;;;;;-148.88;100.00;79215.50;5018836;28;20026;-81
2022/12/17 18:38:37;;;;;;;68.27;28.93;;;;;;;-148.88;100.00;79207.38;5018934;28;20052;-81
2022/12/17 18:43:21;;;;;;;52.30;22.48;;;;;;;-148.88;100.00;79187.06;5017833;28;20022;-81
2022/12/17 18:43:53;;;;;;;70.53;30.38;;;;;;;-148.88;100.00;79185.03;5019103;28;20034;-81
2022/12/17 18:46:18;;;;;;;69.57;28.52;;;;;;;-148.88;100.00;79183.00;5016534;28;20466;-82
2022/12/17 18:48:43;;;;;;;56.47;25.73;;;;;;;-148.88;100.00;79189.09;5016109;28;20018;-83
2022/12/17 18:51:09;;;;;;;52.72;25.70;;;;;;;-148.88;100.00;79195.19;5016852;28;20026;-82
2022/12/17 18:53:34;;;;;;;47.40;19.92;;;;;;;-148.88;100.00;79195.19;5017074;28;20071;-82
2022/12/17 18:56:07;;;;;;;46.58;18.13;;;;;;;-148.88;100.00;79193.16;5021911;28;20057;-82
2022/12/17 18:58:32;;;;;;;50.25;18.63;;;;;;;-148.88;100.00;79197.22;5019368;28;20018;-82
2022/12/17 19:00:57;;;;;;;37.00;17.80;;;;;;;-148.88;100.00;79189.09;5017204;28;20030;-82
2022/12/17 19:03:23;;;;;;;40.08;15.32;;;;;;;-148.88;100.00;79178.91;5016069;28;20036;-82
2022/12/17 19:05:48;;;;;;;35.83;15.38;;;;;;;-148.88;100.00;79176.88;5015830;28;20026;-82
2022/12/17 19:08:13;;;;;;;38.25;16.35;;;;;;;-148.88;100.00;79176.88;5015648;28;20068;-81
2022/12/17 19:10:39;;;;;;;35.40;15.88;;;;;;;-148.88;100.00;79183.00;5017017;28;20030;-82
2022/12/17 19:13:04;;;;;;;38.53;16.77;;;;;;;-148.88;100.00;79172.81;5015669;28;20028;-81
2022/12/17 19:15:29;;;;;;;39.15;17.17;;;;;;;-148.88;100.00;79178.91;5016267;28;20029;-82
2022/12/17 19:17:57;;;;;;;42.35;17.50;;;;;;;-148.88;100.00;79183.00;5015635;28;20042;-82
2022/12/17 19:20:22;;;;;;;43.63;16.13;;;;;;;-148.88;100.00;79187.06;5016948;28;20025;-81
2022/12/17 19:22:47;;;;;;;37.45;16.40;;;;;;;-148.88;100.00;79195.19;5016398;28;20041;-82
2022/12/17 19:25:13;;;;;;;44.40;18.20;;;;;;;-148.88;100.00;79195.19;5017941;28;20079;-82
2022/12/17 19:27:38;;;;;;;43.70;18.40;;;;;;;-148.88;100.00;79207.38;5016740;28;20025;-81
2022/12/17 19:30:04;;;;;;;43.40;17.30;;;;;;;-148.88;100.00;79215.50;5015922;28;20456;-82
2022/12/17 19:32:30;;;;;;;42.03;18.48;;;;;;;-148.88;100.00;79207.38;5017140;28;20441;-82
2022/12/17 19:34:55;;;;;;;44.30;18.17;;;;;;;-148.88;100.00;79219.59;5017362;28;20149;-81
2022/12/17 19:37:20;;;;;;;43.53;17.63;;;;;;;-148.88;100.00;79219.59;5015200;28;20025;-81
2022/12/17 19:39:46;;;;;;;39.15;17.15;;;;;;;-148.88;100.00;79215.50;5015222;28;20113;-82
2022/12/17 19:42:23;;;;;;;39.53;17.60;;;;;;;-148.88;100.00;79211.44;5015788;28;20056;-82
2022/12/17 19:44:52;;;;;;;41.75;17.08;;;;;;;-148.88;100.00;79219.59;5015706;28;20029;-81
2022/12/17 19:47:17;;;;;;;36.60;16.65;;;;;;;-148.88;100.00;79223.66;5014523;28;20480;-84
2022/12/17 19:49:42;;;;;;;34.55;17.13;;;;;;;-148.88;100.00;79219.59;5015056;28;20113;-81
2022/12/17 19:52:08;;;;;;;40.67;16.10;;;;;;;-148.88;100.00;79213.47;5016074;28;20196;-81
2022/12/17 19:54:33;;;;;;;41.05;16.13;;;;;;;-148.88;100.00;79217.53;5016850;28;20032;-81
2022/12/17 19:56:58;;;;;;;34.97;16.05;;;;;;;-148.88;100.00;79219.59;5015742;28;20547;-81
2022/12/17 19:59:25;;;;;;;36.35;16.40;;;;;;;-148.88;100.00;79215.50;5016574;28;20117;-82
2022/12/17 20:01:50;;;;;;;32.13;15.38;;;;;;;-148.88;100.00;79219.59;5016013;28;20049;-81
2022/12/17 20:04:15;;;;;;;34.70;16.30;;;;;;;-148.88;100.00;79223.66;5016221;28;20095;-80
2022/12/17 20:06:42;;;;;;;36.70;15.82;;;;;;;-148.88;100.00;79221.63;5015178;28;20076;-81
2022/12/17 20:09:07;;;;;;;43.00;15.00;;;;;;;-148.88;100.00;79223.66;5016733;28;20111;-82
2022/12/17 20:11:34;;;;;;;42.60;17.10;;;;;;;-148.88;100.00;79219.59;5014330;28;20029;-82
2022/12/17 20:14:14;;;;;;;42.67;16.77;;;;;;;-148.88;100.00;79221.63;5013994;28;20026;-82
2022/12/17 20:16:51;;;;;;;39.55;15.60;;;;;;;-148.88;100.00;79227.72;5015402;28;20026;-82
2022/12/17 20:19:20;;;;;;;41.40;15.35;;;;;;;-148.88;100.00;79231.78;5015796;28;20034;-81
2022/12/17 20:21:46;;;;;;;37.88;15.43;;;;;;;-148.88;100.00;79237.88;5013201;28;20033;-82
2022/12/17 20:24:12;;;;;;;43.63;16.00;;;;;;;-148.88;100.00;79243.97;5013877;28;20030;-82
2022/12/17 20:26:38;;;;;;;38.97;16.58;;;;;;;-148.88;100.00;79246.00;5015327;28;20030;-82
2022/12/17 20:29:07;;;;;;;31.42;14.27;;;;;;;-148.88;100.00;79248.03;5025385;28;20048;-83
2022/12/17 20:31:33;;;;;;;40.13;15.65;;;;;;;-148.88;100.00;79248.03;5020927;28;20030;-82
2022/12/17 20:34:03;;;;;;;31.73;13.80;;;;;;;-148.88;100.00;79248.03;5016093;28;20033;-82
2022/12/17 20:36:29;;;;;;;30.30;12.82;;;;;;;-148.88;100.00;79248.03;5012725;28;20116;-81
2022/12/17 20:39:05;;;;;;;39.58;18.15;;;;;;;-148.88;100.00;79248.03;5020115;28;20483;-84
2022/12/17 20:41:31;;;;;;;35.38;16.80;;;;;;;-148.88;100.00;79256.16;5023333;28;20026;-85
2022/12/17 20:44:02;;;;;;;39.90;15.20;;;;;;;-148.88;100.00;79266.34;5016837;28;20492;-84
2022/12/17 20:46:27;;;;;;;34.97;14.95;;;;;;;-148.88;100.00;79268.38;5013679;28;20021;-84
2022/12/17 20:48:52;;;;;;;32.15;13.75;;;;;;;-148.88;100.00;79270.41;5013388;28;20029;-84
2022/12/17 20:51:22;;;;;;;34.50;13.02;;;;;;;-148.88;100.00;79270.41;5013910;28;20033;-84
2022/12/17 20:53:48;;;;;;;37.28;14.02;;;;;;;-148.88;100.00;79272.44;5014134;28;20136;-85
2022/12/17 20:56:16;;;;;;;38.30;14.05;;;;;;;-148.88;100.00;79278.53;5013947;28;20505;-84
2022/12/17 20:58:42;;;;;;;38.63;15.30;;;;;;;-148.88;100.00;79288.69;5013473;28;20018;-84
2022/12/17 21:01:11;;;;;;;39.63;14.60;;;;;;;-148.88;100.00;79290.72;5015661;28;20492;-85
2022/12/17 21:03:36;;;;;;;34.30;14.38;;;;;;;-148.88;100.00;79292.75;5014972;28;20048;-84
2022/12/17 21:06:13;;;;;;;35.47;13.65;;;;;;;-148.88;100.00;79292.75;5013816;28;20421;-84
2022/12/17 21:08:40;;;;;;;34.65;13.82;;;;;;;-148.88;100.00;79288.69;5014687;28;20036;-84
2022/12/17 21:11:06;;;;;;;37.85;14.80;;;;;;;-148.88;100.00;79288.69;5015798;28;20033;-84
2022/12/17 21:13:33;;;;;;;36.22;13.98;;;;;;;-148.88;100.00;79292.75;5013365;28;20026;-84
2022/12/17 21:16:11;;;;;;;40.55;14.88;;;;;;;-148.88;100.00;79292.75;5014391;28;20060;-85
2022/12/17 21:18:36;;;;;;;39.42;15.60;;;;;;;-148.88;100.00;79292.75;5012037;28;20038;-84
2022/12/17 21:21:11;;;;;;;36.78;15.93;;;;;;;-148.88;100.00;79292.75;5012283;28;20119;-84
2022/12/17 21:23:37;;;;;;;48.15;19.67;;;;;;;-148.88;100.00;79288.69;5013048;28;20021;-84
2022/12/17 21:26:13;;;;;;;39.58;16.25;;;;;;;-148.88;100.00;79290.72;5013138;28;20081;-84
2022/12/17 21:28:40;;;;;;;36.08;13.85;;;;;;;-148.88;100.00;79290.72;5012904;28;20539;-83
2022/12/17 21:31:14;;;;;;;30.10;13.95;;;;;;;-148.88;100.00;79296.84;5013210;28;20026;-85
2022/12/17 21:33:39;;;;;;;37.75;14.05;;;;;;;-148.88;100.00;79292.75;5012981;28;20021;-84
2022/12/17 21:36:05;;;;;;;37.25;13.43;;;;;;;-148.88;100.00;79298.88;5016844;28;20036;-83
2022/12/17 21:38:31;;;;;;;33.85;13.23;;;;;;;-148.88;100.00;79307.00;5016811;28;20022;-84
2022/12/17 21:41:04;;;;;;;33.95;14.88;;;;;;;-148.88;100.00;79307.00;5016913;28;20369;-85
2022/12/17 21:43:29;;;;;;;33.35;15.15;;;;;;;-148.88;100.00;79313.09;5016922;28;20429;-84
2022/12/17 21:45:55;;;;;;;34.25;14.48;;;;;;;-148.88;100.00;79315.13;5016759;28;20041;-84
2022/12/17 21:48:20;;;;;;;36.40;13.63;;;;;;;-148.88;100.00;79333.44;5016572;28;20026;-84
2022/12/17 21:50:46;;;;;;;35.58;13.57;;;;;;;-148.88;100.00;79339.53;5016826;28;20041;-84
2022/12/17 21:53:11;;;;;;;32.17;13.90;;;;;;;-148.88;100.00;79323.25;5016475;28;20112;-84
2022/12/17 21:55:37;;;;;;;33.55;13.30;;;;;;;-148.88;100.00;79321.22;5016851;28;20113;-83
2022/12/17 21:58:03;;;;;;;31.90;13.20;;;;;;;-148.88;100.00;79331.41;5016757;28;20022;-84
2022/12/17 22:00:28;;;;;;;30.70;13.52;;;;;;;-148.88;100.00;79333.44;5016611;28;20093;-84
2022/12/17 22:02:53;;;;;;;35.63;15.30;;;;;;;-148.88;100.00;79345.63;5016689;28;20112;-84
2022/12/17 22:05:19;;;;;;;38.00;14.68;;;;;;;-148.88;100.00;79349.69;5015010;28;20160;-84
2022/12/17 22:07:46;;;;;;;33.33;14.35;;;;;;;-148.88;100.00;79353.75;5016276;28;20060;-84
2022/12/17 22:10:11;;;;;;;31.13;13.23;;;;;;;-148.88;100.00;79359.84;5016508;28;20033;-84
2022/12/17 22:15:20;;;;;;;37.03;14.05;;;;;;;-148.88;100.00;79355.78;5017209;28;20076;-84
2022/12/17 22:17:48;;;;;;;33.55;14.23;;;;;;;-148.88;100.00;79353.75;5016101;28;20026;-84
2022/12/17 22:20:17;;;;;;;41.42;13.52;;;;;;;-148.88;100.00;79359.84;5016361;28;20104;-83
2022/12/17 22:22:43;;;;;;;42.08;14.20;;;;;;;-148.88;100.00;79357.81;5015926;28;20045;-85
2022/12/17 22:25:09;;;;;;;34.22;12.95;;;;;;;-148.88;100.00;79361.88;5016155;28;20029;-84
2022/12/17 22:27:35;;;;;;;37.17;13.68;;;;;;;-148.88;100.00;79355.78;5015981;28;20616;-84
2022/12/17 22:33:01;;;;;;;;;;;;;;;-148.88;100.00;79365.97;5018702;28;20088;-83
2022/12/17 22:35:26;;;;;;;28.55;11.77;;;;;;;-148.88;100.00;79380.19;5017023;28;19965;-83
2022/12/17 22:37:52;;;;;;;37.08;13.63;;;;;;;-148.88;100.00;79368.00;5016315;28;20116;-85
2022/12/17 22:40:21;;;;;;;40.80;13.15;;;;;;;-148.88;100.00;79363.91;5015987;28;20060;-84
2022/12/17 22:45:31;;;;;;;30.20;12.02;;;;;;;-148.88;100.00;79351.72;5014680;28;20037;-86
2022/12/17 22:47:56;;;;;;;33.83;13.45;;;;;;;-148.88;100.00;79349.69;5016311;28;20025;-86
2022/12/17 22:50:21;;;;;;;32.13;11.98;;;;;;;-148.88;100.00;79347.66;5016458;28;20537;-86
2022/12/17 22:52:47;;;;;;;30.15;12.98;;;;;;;-148.88;100.00;79343.59;5015715;28;20034;-86
2022/12/17 22:55:12;;;;;;;39.08;13.77;;;;;;;-148.88;100.00;79339.53;5016860;28;20025;-86
2022/12/17 22:57:38;;;;;;;36.72;13.07;;;;;;;-148.88;100.00;79331.41;5015083;28;20396;-86
2022/12/17 23:00:15;;;;;;;35.00;13.25;;;;;;;-148.88;100.00;79341.56;5015992;28;20018;-86
2022/12/17 23:02:40;;;;;;;30.35;12.43;;;;;;;-148.88;100.00;79341.56;5015329;28;20022;-86
2022/12/17 23:05:06;;;;;;;37.70;14.13;;;;;;;-148.88;100.00;79339.53;5015431;28;20037;-86
2022/12/17 23:07:31;;;;;;;29.92;12.13;;;;;;;-148.88;100.00;79351.72;5015051;28;20105;-86
2022/12/17 23:09:57;;;;;;;30.20;11.95;;;;;;;-148.88;100.00;79361.88;5015461;28;20029;-86
2022/12/17 23:15:07;;;;;;;29.23;11.52;;;;;;;-148.88;100.00;79378.16;5014951;28;20396;-86
2022/12/17 23:17:33;;;;;;;32.25;11.65;;;;;;;-148.88;100.00;79374.09;5014952;28;20025;-86
2022/12/17 23:19:58;;;;;;;33.13;13.18;;;;;;;-148.88;100.00;79370.03;5013617;28;20022;-86
2022/12/17 23:22:23;;;;;;;31.88;13.60;;;;;;;-148.88;100.00;79365.97;5014826;28;20432;-85
2022/12/17 23:24:48;;;;;;;27.08;12.60;;;;;;;-148.88;100.00;79370.03;5014883;28;20030;-85
2022/12/17 23:27:14;;;;;;;26.33;11.52;;;;;;;-148.88;100.00;79368.00;5014722;28;20117;-85
2022/12/17 23:29:39;;;;;;;37.85;12.98;;;;;;;-148.88;100.00;79368.00;5013778;28;20112;-86
2022/12/17 23:32:04;;;;;;;30.33;12.52;;;;;;;-148.88;100.00;79372.06;5013463;28;20030;-86
2022/12/17 23:34:30;;;;;;;32.47;13.13;;;;;;;-148.88;100.00;79378.16;5014773;28;20030;-86
2022/12/17 23:36:55;;;;;;;33.75;12.77;;;;;;;-148.88;100.00;79382.22;5014944;28;20024;-86
2022/12/17 23:39:20;;;;;;;31.15;12.88;;;;;;;-148.88;100.00;79382.22;5014637;28;20400;-86
2022/12/17 23:41:46;;;;;;;28.80;11.38;;;;;;;-148.88;100.00;79390.34;5014899;28;20499;-86
2022/12/17 23:44:11;;;;;;;31.52;11.60;;;;;;;-148.88;100.00;79390.34;5013068;28;20155;-86
2022/12/17 23:46:36;;;;;;;27.08;10.98;;;;;;;-148.88;100.00;79402.56;5016301;28;20053;-86
2022/12/17 23:49:07;;;;;;;21.77;10.50;;;;;;;-148.88;100.00;79410.69;5019772;28;20076;-86
2022/12/17 23:51:33;;;;;;;29.52;11.82;;;;;;;-148.88;100.00;79414.75;5023714;28;20107;-86
2022/12/17 23:53:58;;;;;;;25.67;10.90;;;;;;;-148.88;100.00;79406.63;5016555;28;20022;-86
2022/12/17 23:56:26;;;;;;;37.30;13.60;;;;;;;-148.88;100.00;79418.81;5014797;28;20057;-85
2022/12/17 23:58:54;;;;;;;33.90;12.15;;;;;;;-148.88;100.00;79412.72;5015818;28;20468;-87
